Time;durP1;ratioP1;P1;durP2;ratioP2;P2;SDS_P1;SDS_P2;PMS_P1;PMS_P2;Temp;Humidity;BMP_temperature;BMP_pressure;BME280_temperature;BME280_humidity;BME280_pressure;Samples;Min_cycle;Max_cycle;Signal;HPM_P1;HPM_P2
2022/05/13 00:01:47;;;;;;;;;;;16.70;84.00;;;;;;4345022;33;44831;-77
2022/05/13 00:04:17;;;;;;;;;;;16.60;83.80;;;;;;4332372;33;44120;-78
2022/05/13 00:06:55;;;;;;;;;;;16.60;83.90;;;;;;4332127;33;44007;-77
2022/05/13 00:12:25;;;;;;;;;;;16.60;84.30;;;;;;4345076;33;43476;-77
2022/05/13 00:15:03;;;;;;;;;;;16.50;83.50;;;;;;4345272;33;43487;-77
2022/05/13 00:17:44;;;;;;;;;;;16.50;84.10;;;;;;4331895;33;43436;-77
2022/05/13 00:20:23;;;;;;;;;;;16.50;83.70;;;;;;4331712;33;43117;-77
2022/05/13 00:23:01;;;;;;;;;;;16.40;83.10;;;;;;4332039;33;43005;-77
2022/05/13 00:25:38;;;;;;;;;;;16.40;82.30;;;;;;4344731;33;44224;-78
2022/05/13 00:28:09;;;;;;;;;;;16.40;82.70;;;;;;4345629;33;43543;-77
2022/05/13 00:30:47;;;;;;;;;;;16.40;83.10;;;;;;4332051;33;43843;-77
2022/05/13 00:33:29;;;;;;;;;;;16.40;83.00;;;;;;4345067;33;42954;-77
2022/05/13 00:36:07;;;;;;;;;;;16.40;82.30;;;;;;4345180;33;43590;-77
2022/05/13 00:38:48;;;;;;;;;;;16.40;82.80;;;;;;4331731;33;45103;-77
2022/05/13 00:41:26;;;;;;;;;;;16.30;82.20;;;;;;4344979;33;44150;-77
2022/05/13 00:44:07;;;;;;;;;;;16.40;82.10;;;;;;4345220;33;43707;-77
2022/05/13 00:46:45;;;;;;;;;;;16.30;82.30;;;;;;4345221;33;44335;-77
2022/05/13 00:49:26;;;;;;;;;;;16.30;81.60;;;;;;4331429;33;43617;-77
2022/05/13 00:52:08;;;;;;;;;;;16.30;81.80;;;;;;4332184;33;19997;-77
2022/05/13 00:54:39;;;;;;;;;;;16.20;81.30;;;;;;4331766;33;42535;-78
2022/05/13 00:57:14;;;;;;;;;;;16.20;81.50;;;;;;4331871;33;43700;-78
2022/05/13 00:59:55;;;;;;;;;;;16.20;81.60;;;;;;4345027;33;43709;-77
2022/05/13 01:02:33;;;;;;;;;;;16.20;81.60;;;;;;4330924;33;42924;-77
2022/05/13 01:05:15;;;;;;;;;;;16.10;81.50;;;;;;4331736;33;42606;-77
2022/05/13 01:07:50;;;;;;;;;;;16.10;82.30;;;;;;4344937;33;44364;-77
2022/05/13 01:10:30;;;;;;;;;;;16.10;82.20;;;;;;4331814;33;42272;-77
2022/05/13 01:13:08;;;;;;;;;;;16.00;82.00;;;;;;4332094;33;43896;-77
2022/05/13 01:15:49;;;;;;;;;;;16.00;82.20;;;;;;4332135;33;43253;-77
2022/05/13 01:18:33;;;;;;;;;;;16.00;82.60;;;;;;4345292;33;43032;-78
2022/05/13 01:21:08;;;;;;;;;;;16.00;82.20;;;;;;4331251;33;42696;-76
2022/05/13 01:23:50;;;;;;;;;;;16.00;82.40;;;;;;4345506;33;20151;-77
2022/05/13 01:26:30;;;;;;;;;;;15.90;81.90;;;;;;4331054;33;43825;-77
2022/05/13 01:29:06;;;;;;;;;;;15.90;82.00;;;;;;4331146;33;42693;-77
2022/05/13 01:31:51;;;;;;;;;;;15.90;82.20;;;;;;4344758;33;42845;-76
2022/05/13 01:34:29;;;;;;;;;;;15.90;81.90;;;;;;4329857;33;42588;-76
2022/05/13 01:37:04;;;;;;;;;;;15.80;81.90;;;;;;4344919;33;43494;-77
2022/05/13 01:39:42;;;;;;;;;;;15.80;81.70;;;;;;4347510;33;43487;-77
2022/05/13 01:42:20;;;;;;;;;;;15.80;81.60;;;;;;4333885;33;43406;-76
2022/05/13 01:44:56;;;;;;;;;;;15.80;81.90;;;;;;4347510;33;42831;-76
2022/05/13 01:47:25;;;;;;;;;;;15.70;82.00;;;;;;4347387;33;44021;-77
2022/05/13 01:50:00;;;;;;;;;;;15.70;81.50;;;;;;4347778;33;43231;-76
2022/05/13 01:52:44;;;;;;;;;;;15.70;81.50;;;;;;4334078;33;42830;-76
2022/05/13 01:55:26;;;;;;;;;;;15.70;81.70;;;;;;4334386;33;20001;-76
2022/05/13 01:58:04;;;;;;;;;;;15.70;81.60;;;;;;4347192;33;43469;-77
2022/05/13 02:00:39;;;;;;;;;;;15.60;81.90;;;;;;4347203;33;43924;-77
2022/05/13 02:06:12;;;;;;;;;;;15.60;81.90;;;;;;4347060;33;42476;-77
2022/05/13 02:08:53;;;;;;;;;;;15.50;82.00;;;;;;4346830;33;43021;-77
2022/05/13 02:11:32;;;;;;;;;;;15.60;82.40;;;;;;4347073;33;44920;-76
2022/05/13 02:14:13;;;;;;;;;;;15.50;81.90;;;;;;4347140;33;43759;-77
2022/05/13 02:16:49;;;;;;;;;;;15.50;82.30;;;;;;4333228;33;43142;-77
2022/05/13 02:19:19;;;;;;;;;;;15.50;82.60;;;;;;4347088;33;45396;-77
2022/05/13 02:21:57;;;;;;;;;;;15.40;82.40;;;;;;4346547;33;44347;-76
2022/05/13 02:24:38;;;;;;;;;;;15.40;82.40;;;;;;4346891;33;44191;-76
2022/05/13 02:27:16;;;;;;;;;;;15.40;82.80;;;;;;4347561;33;20469;-76
2022/05/13 02:29:54;;;;;;;;;;;15.40;82.50;;;;;;4333436;33;45111;-76
2022/05/13 02:32:32;;;;;;;;;;;15.40;82.70;;;;;;4346880;33;42876;-77
2022/05/13 02:35:17;;;;;;;;;;;15.40;82.70;;;;;;4333189;33;44980;-76
2022/05/13 02:37:55;;;;;;;;;;;15.30;82.70;;;;;;4346265;33;43490;-77
2022/05/13 02:43:24;;;;;;;;;;;15.30;83.30;;;;;;4346649;33;43136;-76
2022/05/13 02:45:52;;;;;;;;;;;15.30;83.10;;;;;;4346574;33;43868;-77
2022/05/13 02:48:30;;;;;;;;;;;15.30;83.50;;;;;;4332581;33;44220;-77
2022/05/13 02:51:08;;;;;;;;;;;15.20;83.60;;;;;;4346545;33;43697;-77
2022/05/13 02:53:46;;;;;;;;;;;15.20;83.80;;;;;;4346198;33;43209;-77
2022/05/13 02:56:28;;;;;;;;;;;15.20;83.90;;;;;;4345925;33;43432;-77
2022/05/13 02:59:06;;;;;;;;;;;15.20;84.70;;;;;;4346842;33;20002;-77
2022/05/13 03:01:44;;;;;;;;;;;15.20;84.30;;;;;;4332803;33;43472;-77
2022/05/13 03:04:22;;;;;;;;;;;15.20;84.30;;;;;;4346239;33;45479;-77
2022/05/13 03:07:00;;;;;;;;;;;15.20;84.40;;;;;;4346228;33;44214;-77
2022/05/13 03:09:38;;;;;;;;;;;15.10;84.60;;;;;;4332448;33;44791;-77
2022/05/13 03:12:13;;;;;;;;;;;15.10;84.60;;;;;;4332478;33;44187;-77
2022/05/13 03:14:48;;;;;;;;;;;15.10;84.70;;;;;;4346160;33;46041;-77
2022/05/13 03:17:21;;;;;;;;;;;15.10;85.00;;;;;;4332781;33;43865;-76
2022/05/13 03:20:02;;;;;;;;;;;15.10;84.70;;;;;;4345771;33;43038;-77
2022/05/13 03:22:38;;;;;;;;;;;15.00;85.00;;;;;;4345956;33;44124;-76
2022/05/13 03:25:17;;;;;;;;;;;15.00;85.10;;;;;;4345951;33;44148;-76
2022/05/13 03:27:58;;;;;;;;;;;15.00;85.60;;;;;;4332476;33;43198;-76
2022/05/13 03:30:32;;;;;;;;;;;14.90;85.50;;;;;;4333190;33;19997;-76
2022/05/13 03:33:13;;;;;;;;;;;14.90;85.80;;;;;;4332422;33;43589;-76
2022/05/13 03:35:55;;;;;;;;;;;14.90;86.00;;;;;;4345420;33;42234;-76
2022/05/13 03:38:36;;;;;;;;;;;14.90;85.90;;;;;;4333116;33;43479;-76
2022/05/13 03:41:14;;;;;;;;;;;14.90;85.90;;;;;;4332023;33;45083;-76
2022/05/13 03:43:55;;;;;;;;;;;14.90;86.10;;;;;;4332800;33;45766;-77
2022/05/13 03:46:24;;;;;;;;;;;14.90;86.10;;;;;;4345483;33;43193;-77
2022/05/13 03:48:57;;;;;;;;;;;14.90;86.10;;;;;;4332646;33;44806;-76
2022/05/13 03:51:35;;;;;;;;;;;14.90;86.00;;;;;;4345665;33;43189;-76
2022/05/13 03:54:14;;;;;;;;;;;14.90;86.00;;;;;;4332219;33;43695;-75
2022/05/13 03:56:52;;;;;;;;;;;14.90;86.20;;;;;;4345174;33;42471;-75
2022/05/13 03:59:33;;;;;;;;;;;14.80;86.10;;;;;;4345649;33;43727;-76
2022/05/13 04:02:08;;;;;;;;;;;14.80;86.20;;;;;;4345948;33;20002;-77
2022/05/13 04:10:29;;;;;;;;;;;14.80;86.50;;;;;;4345495;33;44350;-77
2022/05/13 04:18:49;;;;;;;;;;;14.80;86.60;;;;;;4344899;33;43354;-76
2022/05/13 04:21:33;;;;;;;;;;;14.70;86.70;;;;;;4345332;33;44239;-76
2022/05/13 04:24:14;;;;;;;;;;;14.70;87.00;;;;;;4345316;33;43434;-77
2022/05/13 04:26:55;;;;;;;;;;;14.70;86.90;;;;;;4332210;33;44183;-76
2022/05/13 04:29:33;;;;;;;;;;;14.70;87.10;;;;;;4344923;33;43482;-76
2022/05/13 04:32:11;;;;;;;;;;;14.70;87.10;;;;;;4345675;33;20102;-76
2022/05/13 04:34:46;;;;;;;;;;;14.70;87.20;;;;;;4345259;33;43015;-77
2022/05/13 04:37:30;;;;;;;;;;;14.70;87.30;;;;;;4345254;33;43092;-76
2022/05/13 04:40:08;;;;;;;;;;;14.60;87.30;;;;;;4344893;33;42601;-76
2022/05/13 04:42:56;;;;;;;;;;;14.60;87.60;;;;;;4331956;33;43483;-76
2022/05/13 04:45:25;;;;;;;;;;;14.60;87.70;;;;;;4331733;33;41481;-77
2022/05/13 04:51:01;;;;;;;;;;;14.50;87.80;;;;;;4345163;33;42078;-76
2022/05/13 04:53:37;;;;;;;;;;;14.60;88.10;;;;;;4331333;33;43726;-76
2022/05/13 04:56:15;;;;;;;;;;;14.50;88.40;;;;;;4331840;33;42470;-75
2022/05/13 04:58:47;;;;;;;;;;;14.50;88.40;;;;;;4345103;33;44798;-74
2022/05/13 05:01:26;;;;;;;;;;;14.50;88.40;;;;;;4345032;33;44347;-75
2022/05/13 05:04:05;;;;;;;;;;;14.50;88.80;;;;;;4332053;33;20287;-76
2022/05/13 05:06:46;;;;;;;;;;;14.50;88.80;;;;;;4345104;33;44690;-75
2022/05/13 05:09:24;;;;;;;;;;;14.50;88.80;;;;;;4344836;33;43302;-75
2022/05/13 05:12:05;;;;;;;;;;;14.50;89.00;;;;;;4331653;33;43925;-76
2022/05/13 05:14:35;;;;;;;;;;;14.50;89.20;;;;;;4348171;33;43470;-75
2022/05/13 05:17:13;;;;;;;;;;;14.50;89.60;;;;;;4334526;33;43014;-74
2022/05/13 05:19:49;;;;;;;;;;;14.50;89.60;;;;;;4334500;33;43738;-75
2022/05/13 05:22:30;;;;;;;;;;;14.50;89.80;;;;;;4347638;33;44284;-75
2022/05/13 05:25:03;;;;;;;;;;;14.50;89.90;;;;;;4334190;33;42816;-75
2022/05/13 05:27:44;;;;;;;;;;;14.50;90.00;;;;;;4347166;33;42785;-75
2022/05/13 05:30:15;;;;;;;;;;;14.50;90.10;;;;;;4347739;33;43881;-76
2022/05/13 05:32:53;;;;;;;;;;;14.50;90.20;;;;;;4347631;33;43691;-75
2022/05/13 05:35:34;;;;;;;;;;;14.50;90.30;;;;;;4334305;33;44231;-75
2022/05/13 05:38:13;;;;;;;;;;;14.50;90.30;;;;;;4347607;33;44520;-76
2022/05/13 05:40:45;;;;;;;;;;;14.50;90.40;;;;;;4334275;33;42971;-75
2022/05/13 05:43:23;;;;;;;;;;;14.50;90.60;;;;;;4347273;33;44160;-74
2022/05/13 05:45:59;;;;;;;;;;;14.50;90.60;;;;;;4333908;33;43212;-75
2022/05/13 05:48:36;;;;;;;;;;;14.50;90.60;;;;;;4333721;33;43069;-75
2022/05/13 05:51:17;;;;;;;;;;;14.60;90.70;;;;;;4346859;33;43787;-75
2022/05/13 05:59:24;;;;;;;;;;;14.50;91.00;;;;;;4346983;33;43398;-76
2022/05/13 06:01:54;;;;;;;;;;;14.50;91.00;;;;;;4333955;33;44206;-75
2022/05/13 06:04:27;;;;;;;;;;;14.50;91.10;;;;;;4334413;33;20056;-75
2022/05/13 06:07:05;;;;;;;;;;;14.60;91.00;;;;;;4347254;33;44291;-76
2022/05/13 06:09:35;;;;;;;;;;;14.60;91.20;;;;;;4333435;33;43494;-77
2022/05/13 06:12:08;;;;;;;;;;;14.50;91.10;;;;;;4346788;33;43474;-75
2022/05/13 06:14:49;;;;;;;;;;;14.60;91.30;;;;;;4333913;33;43381;-75
2022/05/13 06:17:25;;;;;;;;;;;14.60;91.20;;;;;;4333263;33;42851;-75
2022/05/13 06:20:03;;;;;;;;;;;14.60;91.30;;;;;;4346717;33;42448;-76
2022/05/13 06:22:41;;;;;;;;;;;14.60;91.30;;;;;;4346973;33;43923;-75
2022/05/13 06:25:19;;;;;;;;;;;14.60;91.20;;;;;;4332332;33;44227;-75
2022/05/13 06:27:55;;;;;;;;;;;14.60;91.40;;;;;;4346474;33;42801;-76
2022/05/13 06:30:31;;;;;;;;;;;14.60;91.40;;;;;;4346868;33;42843;-75
2022/05/13 06:32:58;;;;;;;;;;;14.60;91.40;;;;;;4346943;33;43091;-77
2022/05/13 06:35:33;;;;;;;;;;;14.70;91.50;;;;;;4333054;33;42758;-75
2022/05/13 06:38:11;;;;;;;;;;;14.70;91.60;;;;;;4346602;33;43122;-74
2022/05/13 06:40:52;;;;;;;;;;;14.70;91.50;;;;;;4333133;33;43991;-74
2022/05/13 06:43:31;;;;;;;;;;;14.70;91.50;;;;;;4332791;33;43703;-75
2022/05/13 06:46:07;;;;;;;;;;;14.70;91.60;;;;;;4333663;33;43717;-74
2022/05/13 06:48:43;;;;;;;;;;;14.80;91.60;;;;;;4332741;33;44291;-74
2022/05/13 06:51:24;;;;;;;;;;;14.70;91.50;;;;;;4332989;33;44802;-75
2022/05/13 06:54:09;;;;;;;;;;;14.80;91.70;;;;;;4346466;33;44299;-74
2022/05/13 06:56:47;;;;;;;;;;;14.80;91.90;;;;;;4333072;33;42905;-74
2022/05/13 06:59:14;;;;;;;;;;;14.80;92.10;;;;;;4332664;33;44773;-74
2022/05/13 07:01:44;;;;;;;;;;;14.80;92.10;;;;;;4332659;33;44200;-74
2022/05/13 07:04:19;;;;;;;;;;;14.80;92.00;;;;;;4333231;33;43718;-74
2022/05/13 07:06:54;;;;;;;;;;;14.80;92.10;;;;;;4346298;33;44104;-74
2022/05/13 07:09:27;;;;;;;;;;;14.80;92.00;;;;;;4332769;33;44100;-75
2022/05/13 07:11:55;;;;;;;;;;;14.80;92.10;;;;;;4332549;33;42180;-74
2022/05/13 07:14:28;;;;;;;;;;;14.80;92.10;;;;;;4332820;33;43478;-74
2022/05/13 07:16:58;;;;;;;;;;;14.80;92.10;;;;;;4346012;33;42848;-75
2022/05/13 07:19:39;;;;;;;;;;;14.90;92.60;;;;;;4346050;33;43947;-74
2022/05/13 07:22:18;;;;;;;;;;;14.80;92.30;;;;;;4346154;33;43691;-75
2022/05/13 07:24:56;;;;;;;;;;;14.90;92.40;;;;;;4346188;33;43394;-75
2022/05/13 07:27:23;;;;;;;;;;;14.90;92.60;;;;;;4346125;33;43767;-74
2022/05/13 07:30:01;;;;;;;;;;;14.90;92.50;;;;;;4332168;33;43202;-74
2022/05/13 07:32:28;;;;;;;;;;;14.90;92.60;;;;;;4345906;33;43429;-74
2022/05/13 07:34:58;;;;;;;;;;;14.90;92.50;;;;;;4331820;33;44286;-74
2022/05/13 07:37:34;;;;;;;;;;;14.90;92.70;;;;;;4346550;33;20005;-74
2022/05/13 07:43:03;;;;;;;;;;;14.90;92.70;;;;;;4345690;33;43689;-74
2022/05/13 07:45:34;;;;;;;;;;;14.90;92.90;;;;;;4345452;33;43382;-74
2022/05/13 07:48:07;;;;;;;;;;;14.90;92.80;;;;;;4345319;33;44242;-74
2022/05/13 07:50:34;;;;;;;;;;;15.00;92.90;;;;;;4332320;33;43719;-75
2022/05/13 07:53:07;;;;;;;;;;;15.00;92.90;;;;;;4332357;33;45748;-75
2022/05/13 07:55:39;;;;;;;;;;;15.00;92.90;;;;;;4345580;33;44656;-74
2022/05/13 07:58:09;;;;;;;;;;;15.00;93.10;;;;;;4345110;33;42937;-74
2022/05/13 08:00:42;;;;;;;;;;;15.00;93.20;;;;;;4345053;33;43299;-74
2022/05/13 08:03:19;;;;;;;;;;;15.00;93.30;;;;;;4331534;33;44224;-75
2022/05/13 08:05:51;;;;;;;;;;;15.00;93.10;;;;;;4345598;33;43424;-74
2022/05/13 08:08:22;;;;;;;;;;;15.00;93.20;;;;;;4346238;33;20002;-75
2022/05/13 08:10:55;;;;;;;;;;;15.00;93.10;;;;;;4345587;33;44212;-74
2022/05/13 08:13:34;;;;;;;;;;;15.10;93.20;;;;;;4345329;33;42883;-76
2022/05/13 08:16:01;;;;;;;;;;;15.10;93.30;;;;;;4332355;33;43017;-76
2022/05/13 08:18:32;;;;;;;;;;;15.00;93.30;;;;;;4345047;33;43638;-75
2022/05/13 08:20:59;;;;;;;;;;;15.10;93.20;;;;;;4344884;33;42066;-75
2022/05/13 08:23:42;;;;;;;;;;;15.10;93.30;;;;;;4345358;33;43927;-74
2022/05/13 08:26:15;;;;;;;;;;;15.10;93.40;;;;;;4332183;33;42863;-74
2022/05/13 08:28:51;;;;;;;;;;;15.10;93.40;;;;;;4332374;33;43482;-75
2022/05/13 08:31:23;;;;;;;;;;;15.10;93.20;;;;;;4331826;33;42900;-75
2022/05/13 08:33:58;;;;;;;;;;;15.10;93.10;;;;;;4345418;33;43087;-74
2022/05/13 08:36:29;;;;;;;;;;;15.10;93.40;;;;;;4331424;33;45016;-74
2022/05/13 08:39:10;;;;;;;;;;;15.20;93.30;;;;;;4346604;33;20008;-75
2022/05/13 08:42:00;;;;;;;;;;;15.20;93.30;;;;;;4345183;33;42901;-75
2022/05/13 08:44:33;;;;;;;;;;;15.20;92.90;;;;;;4345121;33;43654;-75
2022/05/13 08:47:03;;;;;;;;;;;15.20;92.50;;;;;;4332223;33;43028;-74
2022/05/13 08:49:55;;;;;;;;;;;15.20;92.40;;;;;;4336983;33;44259;-75
2022/05/13 08:55:23;;;;;;;;;;;15.20;92.00;;;;;;4348051;33;42884;-76
2022/05/13 08:57:59;;;;;;;;;;;15.20;91.80;;;;;;4334334;33;42382;-75
2022/05/13 09:00:50;;;;;;;;;;;15.20;91.70;;;;;;4335334;33;44181;-74
2022/05/13 09:03:37;;;;;;;;;;;15.20;91.80;;;;;;4347829;33;43726;-74
2022/05/13 09:06:22;;;;;;;;;;;15.20;91.90;;;;;;4334634;33;42697;-74
2022/05/13 09:08:50;;;;;;;;;;;15.20;92.10;;;;;;4347548;33;44419;-75
2022/05/13 09:11:28;;;;;;;;;;;15.30;92.00;;;;;;4347967;33;44455;-75
2022/05/13 09:14:11;;;;;;;;;;;15.30;91.80;;;;;;4334544;33;44020;-76
2022/05/13 09:16:57;;;;;;;;;;;15.30;91.90;;;;;;4347791;33;41951;-75
2022/05/13 09:19:39;;;;;;;;;;;15.30;91.60;;;;;;4347721;33;44885;-74
2022/05/13 09:22:07;;;;;;;;;;;15.30;91.50;;;;;;4334282;33;42879;-74
2022/05/13 09:24:34;;;;;;;;;;;15.30;91.50;;;;;;4347514;33;43001;-74
2022/05/13 09:27:06;;;;;;;;;;;15.30;91.20;;;;;;4347561;33;43628;-74
2022/05/13 09:29:45;;;;;;;;;;;15.30;91.30;;;;;;4334674;33;43197;-75
2022/05/13 09:32:14;;;;;;;;;;;15.40;91.50;;;;;;4334084;33;43035;-74
2022/05/13 09:34:49;;;;;;;;;;;15.40;91.40;;;;;;4347317;33;44781;-75
2022/05/13 09:37:19;;;;;;;;;;;15.40;91.10;;;;;;4347291;33;44055;-75
2022/05/13 09:39:48;;;;;;;;;;;15.30;90.60;;;;;;4346913;33;42475;-74
2022/05/13 09:42:22;;;;;;;;;;;15.40;90.50;;;;;;4347883;33;20044;-74
2022/05/13 09:44:51;;;;;;;;;;;15.40;90.70;;;;;;4346860;33;43710;-75
2022/05/13 09:47:31;;;;;;;;;;;15.40;90.80;;;;;;4346904;33;42739;-74
2022/05/13 09:50:24;;;;;;;;;;;15.40;90.00;;;;;;4335774;33;44851;-74
2022/05/13 09:52:52;;;;;;;;;;;15.40;90.40;;;;;;4334359;33;43735;-75
2022/05/13 09:55:32;;;;;;;;;;;15.40;90.40;;;;;;4347033;33;43667;-75
2022/05/13 09:58:10;;;;;;;;;;;15.40;90.50;;;;;;4346910;33;42739;-74
2022/05/13 10:00:48;;;;;;;;;;;15.50;90.40;;;;;;4346672;33;43542;-75
2022/05/13 10:03:29;;;;;;;;;;;15.50;90.50;;;;;;4346625;33;46014;-75
2022/05/13 10:06:37;;;;;;;;;;;15.50;90.40;;;;;;4332933;33;44985;-74
2022/05/13 10:15:29;;;;;;;;;;;15.50;90.00;;;;;;4346879;33;42946;-75
2022/05/13 10:18:06;;;;;;;;;;;15.60;90.20;;;;;;4333402;33;43899;-74
2022/05/13 10:20:37;;;;;;;;;;;15.60;90.00;;;;;;4333943;33;43091;-76
2022/05/13 10:23:14;;;;;;;;;;;15.60;90.00;;;;;;4333676;33;43011;-75
2022/05/13 10:26:02;;;;;;;;;;;15.60;90.10;;;;;;4346765;33;43473;-75
2022/05/13 10:28:46;;;;;;;;;;;15.60;89.30;;;;;;4346531;33;42795;-75
2022/05/13 10:31:25;;;;;;;;;;;15.60;88.50;;;;;;4346768;33;45008;-75
2022/05/13 10:34:11;;;;;;;;;;;15.70;89.40;;;;;;4346675;33;44315;-74
2022/05/13 10:37:03;;;;;;;;;;;15.70;89.30;;;;;;4346873;33;44203;-75
2022/05/13 10:39:51;;;;;;;;;;;15.70;90.00;;;;;;4333288;33;42938;-75
2022/05/13 10:42:30;;;;;;;;;;;15.70;90.00;;;;;;4333491;33;44223;-75
2022/05/13 10:45:05;;;;;;;;;;;15.70;89.30;;;;;;4346802;33;44418;-75
2022/05/13 10:47:52;;;;;;;;;;;15.70;89.20;;;;;;4333760;33;42758;-75
2022/05/13 10:50:35;;;;;;;;;;;15.80;89.60;;;;;;4346098;33;42497;-75
2022/05/13 10:53:21;;;;;;;;;;;15.80;89.40;;;;;;4332707;33;44306;-76
2022/05/13 10:56:14;;;;;;;;;;;15.80;89.40;;;;;;4333554;33;43939;-76
2022/05/13 10:59:07;;;;;;;;;;;15.80;89.40;;;;;;4345425;33;43904;-75
2022/05/13 11:02:08;;;;;;;;;;;15.80;89.40;;;;;;4346541;33;43658;-76
2022/05/13 11:05:01;;;;;;;;;;;15.90;89.00;;;;;;4333068;33;45351;-75
2022/05/13 11:07:48;;;;;;;;;;;15.90;88.60;;;;;;4338412;33;45274;-77
2022/05/13 11:10:32;;;;;;;;;;;15.90;89.20;;;;;;4332117;33;42828;-75
2022/05/13 11:13:29;;;;;;;;;;;15.90;89.50;;;;;;4345981;33;42065;-75
2022/05/13 11:16:11;;;;;;;;;;;16.00;89.10;;;;;;4346231;33;22013;-75
2022/05/13 11:18:55;;;;;;;;;;;16.00;89.10;;;;;;4333106;33;44244;-75
2022/05/13 11:21:48;;;;;;;;;;;16.00;89.60;;;;;;4333205;33;44228;-75
2022/05/13 11:27:28;;;;;;;;;;;16.00;89.30;;;;;;4346277;33;43300;-76
2022/05/13 11:30:12;;;;;;;;;;;16.00;89.30;;;;;;4346087;33;43985;-75
2022/05/13 11:33:02;;;;;;;;;;;16.10;88.80;;;;;;4345953;33;43178;-75
2022/05/13 11:35:44;;;;;;;;;;;16.10;89.30;;;;;;4345587;33;45739;-75
2022/05/13 11:38:15;;;;;;;;;;;16.10;89.10;;;;;;4332713;33;45002;-75
2022/05/13 11:41:14;;;;;;;;;;;16.10;88.90;;;;;;4345691;33;43782;-75
2022/05/13 11:44:13;;;;;;;;;;;16.10;89.00;;;;;;4315075;33;45011;-75
2022/05/13 11:47:05;;;;;;;;;;;16.20;89.30;;;;;;4346392;33;19998;-75
2022/05/13 11:49:43;;;;;;;;;;;16.20;88.50;;;;;;4332012;33;43209;-75
2022/05/13 11:52:16;;;;;;;;;;;16.20;89.00;;;;;;4332710;33;43736;-75
2022/05/13 11:54:44;;;;;;;;;;;16.20;88.60;;;;;;4345885;33;44229;-75
2022/05/13 11:57:11;;;;;;;;;;;16.30;89.20;;;;;;4331979;33;43328;-76
2022/05/13 11:59:46;;;;;;;;;;;16.30;88.90;;;;;;4345443;33;43442;-76
2022/05/13 12:02:18;;;;;;;;;;;16.30;88.30;;;;;;4345247;33;42835;-75
2022/05/13 12:05:04;;;;;;;;;;;16.30;88.60;;;;;;4332166;33;43570;-75
2022/05/13 12:07:38;;;;;;;;;;;16.40;89.00;;;;;;4332056;33;43810;-75
2022/05/13 12:10:12;;;;;;;;;;;16.40;88.90;;;;;;4332342;33;43656;-75
2022/05/13 12:12:49;;;;;;;;;;;16.40;89.20;;;;;;4345657;33;44801;-75
2022/05/13 12:15:37;;;;;;;;;;;16.40;89.60;;;;;;4345608;33;43685;-75
2022/05/13 12:18:20;;;;;;;;;;;16.50;88.60;;;;;;4346136;33;20056;-75
2022/05/13 12:20:59;;;;;;;;;;;16.50;89.50;;;;;;4331541;33;43955;-75
2022/05/13 12:23:50;;;;;;;;;;;16.50;89.20;;;;;;4331671;33;42439;-75
2022/05/13 12:26:26;;;;;;;;;;;16.60;89.30;;;;;;4334694;33;43835;-74
2022/05/13 12:29:13;;;;;;;;;;;16.60;89.40;;;;;;4332159;33;43053;-74
2022/05/13 12:31:55;;;;;;;;;;;16.60;89.10;;;;;;4345204;33;43083;-75
2022/05/13 12:37:38;;;;;;;;;;;16.70;89.20;;;;;;4345426;33;43053;-75
2022/05/13 12:40:14;;;;;;;;;;;16.70;89.40;;;;;;4344779;33;42889;-74
2022/05/13 12:42:53;;;;;;;;;;;16.70;89.00;;;;;;4332142;33;43280;-75
2022/05/13 12:45:41;;;;;;;;;;;16.80;89.10;;;;;;4345276;33;43101;-75
2022/05/13 12:48:11;;;;;;;;;;;16.80;90.00;;;;;;4333503;33;20009;-75
2022/05/13 12:50:41;;;;;;;;;;;16.80;89.60;;;;;;4331506;33;42253;-75
2022/05/13 12:53:29;;;;;;;;;;;16.90;89.70;;;;;;4331761;33;42888;-75
2022/05/13 12:56:08;;;;;;;;;;;16.90;89.90;;;;;;4332281;33;44553;-75
2022/05/13 12:58:44;;;;;;;;;;;16.90;89.80;;;;;;4344754;33;43819;-75
2022/05/13 13:01:16;;;;;;;;;;;16.90;89.60;;;;;;4345263;33;43884;-74
2022/05/13 13:03:47;;;;;;;;;;;17.00;90.00;;;;;;4331619;33;42623;-74
2022/05/13 13:06:19;;;;;;;;;;;17.00;89.20;;;;;;4331915;33;43059;-74
2022/05/13 13:08:56;;;;;;;;;;;17.10;89.60;;;;;;4344554;33;42861;-75
2022/05/13 13:11:34;;;;;;;;;;;17.10;89.90;;;;;;4345168;33;43424;-76
2022/05/13 13:14:11;;;;;;;;;;;17.10;89.70;;;;;;4331856;33;43157;-74
2022/05/13 13:16:55;;;;;;;;;;;17.10;89.70;;;;;;4331405;33;43478;-75
2022/05/13 13:19:24;;;;;;;;;;;17.10;90.10;;;;;;4344659;33;42164;-75
2022/05/13 13:21:58;;;;;;;;;;;17.10;90.00;;;;;;4331316;33;42879;-74
2022/05/13 13:24:30;;;;;;;;;;;17.20;89.10;;;;;;4331426;33;42995;-75
2022/05/13 13:27:04;;;;;;;;;;;17.20;89.40;;;;;;4344891;33;43735;-75
2022/05/13 13:29:33;;;;;;;;;;;17.20;89.30;;;;;;4331654;33;42506;-74
2022/05/13 13:32:07;;;;;;;;;;;17.30;89.40;;;;;;4344885;33;43260;-75
2022/05/13 13:34:41;;;;;;;;;;;17.30;89.40;;;;;;4346651;33;42746;-75
2022/05/13 13:37:13;;;;;;;;;;;17.30;90.00;;;;;;4334376;33;43577;-75
2022/05/13 13:40:13;;;;;;;;;;;17.30;90.10;;;;;;4335501;33;42558;-75
2022/05/13 13:42:43;;;;;;;;;;;17.40;90.00;;;;;;4347600;33;45810;-75
2022/05/13 13:45:14;;;;;;;;;;;17.40;90.20;;;;;;4334574;33;43958;-74
2022/05/13 13:47:44;;;;;;;;;;;17.40;89.70;;;;;;4347072;33;43671;-75
2022/05/13 13:50:23;;;;;;;;;;;17.40;90.10;;;;;;4335509;33;20394;-74
2022/05/13 13:52:55;;;;;;;;;;;17.50;90.00;;;;;;4347353;33;42823;-75
2022/05/13 13:55:33;;;;;;;;;;;17.50;89.70;;;;;;4347334;33;42438;-75
2022/05/13 13:58:09;;;;;;;;;;;17.50;90.00;;;;;;4346931;33;43722;-75
2022/05/13 14:00:47;;;;;;;;;;;17.50;90.10;;;;;;4334086;33;43450;-75
2022/05/13 14:03:17;;;;;;;;;;;17.50;89.80;;;;;;4330884;33;43737;-75
2022/05/13 14:05:54;;;;;;;;;;;17.60;89.80;;;;;;4331442;33;44144;-75
2022/05/13 14:08:27;;;;;;;;;;;17.60;90.00;;;;;;4332677;33;44615;-74
2022/05/13 14:11:02;;;;;;;;;;;17.60;90.00;;;;;;4331335;33;45039;-74
2022/05/13 14:13:58;;;;;;;;;;;17.70;90.40;;;;;;4331157;33;44259;-75
2022/05/13 14:16:30;;;;;;;;;;;17.70;90.00;;;;;;4330925;33;43473;-75
2022/05/13 14:19:11;;;;;;;;;;;17.70;90.30;;;;;;4331102;33;42476;-74
2022/05/13 14:22:07;;;;;;;;;;;17.70;89.90;;;;;;4331900;33;20001;-75
2022/05/13 14:24:36;;;;;;;;;;;17.80;90.50;;;;;;4331349;33;43831;-74
2022/05/13 14:27:24;;;;;;;;;;;17.80;90.10;;;;;;4331310;33;43682;-75
2022/05/13 14:30:05;;;;;;;;;;;17.80;90.20;;;;;;4330885;33;44275;-75
2022/05/13 14:32:36;;;;;;;;;;;17.80;90.10;;;;;;4330968;33;43645;-75
2022/05/13 14:35:12;;;;;;;;;;;17.80;90.30;;;;;;4332091;33;44909;-75
2022/05/13 14:37:53;;;;;;;;;;;17.80;90.10;;;;;;4331155;33;44780;-75
2022/05/13 14:40:30;;;;;;;;;;;17.80;90.30;;;;;;4331082;33;44307;-75
2022/05/13 14:43:02;;;;;;;;;;;17.80;90.30;;;;;;4330814;33;43369;-75
2022/05/13 14:45:36;;;;;;;;;;;17.90;90.20;;;;;;4330039;33;43363;-75
2022/05/13 14:48:22;;;;;;;;;;;17.90;90.40;;;;;;4331025;33;43727;-75
2022/05/13 14:50:58;;;;;;;;;;;17.90;90.20;;;;;;4330537;33;42019;-74
2022/05/13 14:53:45;;;;;;;;;;;17.90;90.20;;;;;;4330683;33;42720;-74
2022/05/13 14:56:14;;;;;;;;;;;17.90;90.40;;;;;;4331879;33;43114;-75
2022/05/13 14:59:20;;;;;;;;;;;17.90;90.20;;;;;;4331749;33;44782;-75
2022/05/13 15:01:50;;;;;;;;;;;17.90;89.90;;;;;;4285652;33;44165;-75
2022/05/13 15:04:26;;;;;;;;;;;17.90;90.20;;;;;;4324260;33;43713;-75
2022/05/13 15:06:54;;;;;;;;;;;17.90;90.60;;;;;;4330752;33;43096;-75
2022/05/13 15:09:35;;;;;;;;;;;17.90;90.60;;;;;;4331047;33;43669;-75
2022/05/13 15:12:09;;;;;;;;;;;17.90;90.50;;;;;;4330000;33;42554;-75
2022/05/13 15:14:39;;;;;;;;;;;18.00;90.40;;;;;;4330458;33;43692;-75
2022/05/13 15:17:16;;;;;;;;;;;18.00;90.50;;;;;;4330428;33;43734;-75
2022/05/13 15:19:48;;;;;;;;;;;18.00;90.60;;;;;;4331534;33;43718;-75
2022/05/13 15:22:18;;;;;;;;;;;18.00;90.40;;;;;;4332576;33;20108;-75
2022/05/13 15:24:53;;;;;;;;;;;18.00;90.50;;;;;;4330189;33;43895;-75
2022/05/13 15:27:25;;;;;;;;;;;18.00;90.40;;;;;;4330840;33;44167;-75
2022/05/13 15:29:58;;;;;;;;;;;18.10;90.40;;;;;;4330336;33;45073;-75
2022/05/13 15:32:26;;;;;;;;;;;18.10;90.30;;;;;;4329910;33;42737;-75
2022/05/13 15:34:58;;;;;;;;;;;18.10;90.60;;;;;;4330086;33;46019;-75
2022/05/13 15:37:31;;;;;;;;;;;18.10;90.30;;;;;;4330657;33;43620;-75
2022/05/13 15:40:06;;;;;;;;;;;18.10;90.40;;;;;;4330092;33;45499;-75
2022/05/13 15:42:36;;;;;;;;;;;18.10;90.30;;;;;;4331012;33;43527;-75
2022/05/13 15:45:06;;;;;;;;;;;18.10;90.40;;;;;;4330488;33;43478;-75
2022/05/13 15:47:39;;;;;;;;;;;18.10;90.30;;;;;;4329536;33;43581;-75
2022/05/13 15:52:55;;;;;;;;;;;18.10;90.30;;;;;;4330837;33;42603;-76
2022/05/13 15:55:25;;;;;;;;;;;18.10;90.40;;;;;;4330664;33;42448;-75
2022/05/13 15:58:00;;;;;;;;;;;18.20;90.60;;;;;;4329629;33;43469;-75
2022/05/13 16:00:31;;;;;;;;;;;18.10;90.40;;;;;;4329794;33;44669;-75
2022/05/13 16:03:07;;;;;;;;;;;18.20;90.40;;;;;;4329598;33;44983;-75
2022/05/13 16:05:41;;;;;;;;;;;18.10;90.20;;;;;;4329730;33;43221;-75